sensor_id;sensor_type;location;lat;lon;timestamp;P1;durP1;ratioP1;P2;durP2;ratioP2
17953;SDS011;9102;53.548;9.926;2024-02-14T00:00:03;8.18;;;2.13;;
17953;SDS011;9102;53.548;9.926;2024-02-14T00:02:31;10.90;;;2.13;;
17953;SDS011;9102;53.548;9.926;2024-02-14T00:04:58;5.18;;;1.90;;
17953;SDS011;9102;53.548;9.926;2024-02-14T00:07:25;7.78;;;2.00;;
17953;SDS011;9102;53.548;9.926;2024-02-14T00:09:52;7.80;;;2.03;;
17953;SDS011;9102;53.548;9.926;2024-02-14T00:12:19;8.52;;;2.67;;
17953;SDS011;9102;53.548;9.926;2024-02-14T00:14:46;10.23;;;2.78;;
17953;SDS011;9102;53.548;9.926;2024-02-14T00:17:15;6.40;;;2.35;;
17953;SDS011;9102;53.548;9.926;2024-02-14T00:19:42;4.95;;;2.22;;
17953;SDS011;9102;53.548;9.926;2024-02-14T00:22:08;7.18;;;2.38;;
17953;SDS011;9102;53.548;9.926;2024-02-14T00:24:35;6.65;;;2.38;;
17953;SDS011;9102;53.548;9.926;2024-02-14T00:27:02;9.50;;;2.25;;
17953;SDS011;9102;53.548;9.926;2024-02-14T00:29:29;9.15;;;2.28;;
17953;SDS011;9102;53.548;9.926;2024-02-14T00:31:59;5.63;;;2.15;;
17953;SDS011;9102;53.548;9.926;2024-02-14T00:34:27;5.28;;;2.30;;
17953;SDS011;9102;53.548;9.926;2024-02-14T00:36:55;5.95;;;2.30;;
17953;SDS011;9102;53.548;9.926;2024-02-14T00:39:21;4.28;;;1.90;;
17953;SDS011;9102;53.548;9.926;2024-02-14T00:41:48;4.95;;;1.90;;
17953;SDS011;9102;53.548;9.926;2024-02-14T00:44:17;4.68;;;2.30;;
17953;SDS011;9102;53.548;9.926;2024-02-14T00:46:44;5.68;;;2.10;;
17953;SDS011;9102;53.548;9.926;2024-02-14T00:49:11;5.18;;;2.20;;
17953;SDS011;9102;53.548;9.926;2024-02-14T00:51:40;4.25;;;2.13;;
17953;SDS011;9102;53.548;9.926;2024-02-14T00:54:07;4.53;;;2.20;;
17953;SDS011;9102;53.548;9.926;2024-02-14T00:56:34;10.65;;;2.20;;
17953;SDS011;9102;53.548;9.926;2024-02-14T00:59:01;5.50;;;1.92;;
17953;SDS011;9102;53.548;9.926;2024-02-14T01:01:27;6.43;;;2.20;;
17953;SDS011;9102;53.548;9.926;2024-02-14T01:03:54;5.78;;;2.08;;
17953;SDS011;9102;53.548;9.926;2024-02-14T01:06:21;5.07;;;2.30;;
17953;SDS011;9102;53.548;9.926;2024-02-14T01:08:51;8.95;;;2.75;;
17953;SDS011;9102;53.548;9.926;2024-02-14T01:11:18;6.60;;;2.53;;
17953;SDS011;9102;53.548;9.926;2024-02-14T01:13:45;5.53;;;2.25;;
17953;SDS011;9102;53.548;9.926;2024-02-14T01:16:11;6.95;;;2.53;;
17953;SDS011;9102;53.548;9.926;2024-02-14T01:18:39;5.32;;;2.60;;
17953;SDS011;9102;53.548;9.926;2024-02-14T01:21:06;4.32;;;2.20;;
17953;SDS011;9102;53.548;9.926;2024-02-14T01:23:33;4.38;;;2.30;;
17953;SDS011;9102;53.548;9.926;2024-02-14T01:26:02;8.38;;;2.88;;
17953;SDS011;9102;53.548;9.926;2024-02-14T01:28:29;7.45;;;2.70;;
17953;SDS011;9102;53.548;9.926;2024-02-14T01:30:55;6.10;;;2.83;;
17953;SDS011;9102;53.548;9.926;2024-02-14T01:33:23;55.17;;;18.33;;
17953;SDS011;9102;53.548;9.926;2024-02-14T01:35:49;47.85;;;16.80;;
17953;SDS011;9102;53.548;9.926;2024-02-14T01:38:16;33.38;;;10.80;;
17953;SDS011;9102;53.548;9.926;2024-02-14T01:40:43;23.90;;;10.85;;
17953;SDS011;9102;53.548;9.926;2024-02-14T01:43:13;26.25;;;10.57;;
17953;SDS011;9102;53.548;9.926;2024-02-14T01:45:40;19.50;;;7.07;;
17953;SDS011;9102;53.548;9.926;2024-02-14T01:48:07;9.82;;;4.40;;
17953;SDS011;9102;53.548;9.926;2024-02-14T01:50:35;8.07;;;3.35;;
17953;SDS011;9102;53.548;9.926;2024-02-14T01:53:02;10.95;;;3.45;;
17953;SDS011;9102;53.548;9.926;2024-02-14T01:55:29;8.13;;;3.80;;
17953;SDS011;9102;53.548;9.926;2024-02-14T01:57:57;7.90;;;3.00;;
17953;SDS011;9102;53.548;9.926;2024-02-14T02:00:26;9.90;;;3.50;;
17953;SDS011;9102;53.548;9.926;2024-02-14T02:02:53;6.28;;;3.20;;
17953;SDS011;9102;53.548;9.926;2024-02-14T02:05:20;8.75;;;3.38;;
17953;SDS011;9102;53.548;9.926;2024-02-14T02:07:47;8.50;;;3.67;;
17953;SDS011;9102;53.548;9.926;2024-02-14T02:10:14;8.68;;;3.72;;
17953;SDS011;9102;53.548;9.926;2024-02-14T02:12:42;8.63;;;3.58;;
17953;SDS011;9102;53.548;9.926;2024-02-14T02:15:08;12.70;;;4.10;;
17953;SDS011;9102;53.548;9.926;2024-02-14T02:17:39;8.30;;;4.00;;
17953;SDS011;9102;53.548;9.926;2024-02-14T02:20:07;6.25;;;3.65;;
17953;SDS011;9102;53.548;9.926;2024-02-14T02:22:34;9.82;;;3.78;;
17953;SDS011;9102;53.548;9.926;2024-02-14T02:25:03;13.63;;;3.75;;
17953;SDS011;9102;53.548;9.926;2024-02-14T02:27:32;10.43;;;4.20;;
17953;SDS011;9102;53.548;9.926;2024-02-14T02:30:00;10.30;;;4.28;;
17953;SDS011;9102;53.548;9.926;2024-02-14T02:32:29;9.20;;;4.63;;
17953;SDS011;9102;53.548;9.926;2024-02-14T02:34:56;6.22;;;3.80;;
17953;SDS011;9102;53.548;9.926;2024-02-14T02:37:23;9.98;;;4.10;;
17953;SDS011;9102;53.548;9.926;2024-02-14T02:39:51;8.23;;;3.92;;
17953;SDS011;9102;53.548;9.926;2024-02-14T02:42:20;8.13;;;4.20;;
17953;SDS011;9102;53.548;9.926;2024-02-14T02:44:48;8.43;;;3.72;;
17953;SDS011;9102;53.548;9.926;2024-02-14T02:47:15;7.60;;;3.60;;
17953;SDS011;9102;53.548;9.926;2024-02-14T02:49:42;8.52;;;4.20;;
17953;SDS011;9102;53.548;9.926;2024-02-14T02:52:09;7.80;;;3.85;;
17953;SDS011;9102;53.548;9.926;2024-02-14T02:54:36;14.43;;;4.47;;
17953;SDS011;9102;53.548;9.926;2024-02-14T02:57:06;8.93;;;5.57;;
17953;SDS011;9102;53.548;9.926;2024-02-14T02:59:35;8.90;;;4.10;;
17953;SDS011;9102;53.548;9.926;2024-02-14T03:02:02;10.48;;;5.20;;
17953;SDS011;9102;53.548;9.926;2024-02-14T03:04:33;10.32;;;4.32;;
17953;SDS011;9102;53.548;9.926;2024-02-14T03:07:00;6.88;;;4.28;;
17953;SDS011;9102;53.548;9.926;2024-02-14T03:09:29;10.43;;;5.03;;
17953;SDS011;9102;53.548;9.926;2024-02-14T03:11:56;12.32;;;4.93;;
17953;SDS011;9102;53.548;9.926;2024-02-14T03:14:23;8.10;;;4.93;;
17953;SDS011;9102;53.548;9.926;2024-02-14T03:16:51;8.85;;;4.40;;
17953;SDS011;9102;53.548;9.926;2024-02-14T03:19:18;13.90;;;5.22;;
17953;SDS011;9102;53.548;9.926;2024-02-14T03:21:46;8.35;;;4.72;;
17953;SDS011;9102;53.548;9.926;2024-02-14T03:24:13;10.18;;;5.18;;
17953;SDS011;9102;53.548;9.926;2024-02-14T03:26:40;10.10;;;4.80;;
17953;SDS011;9102;53.548;9.926;2024-02-14T03:29:07;10.93;;;5.55;;
17953;SDS011;9102;53.548;9.926;2024-02-14T03:31:34;12.30;;;5.63;;
17953;SDS011;9102;53.548;9.926;2024-02-14T03:34:02;13.20;;;5.57;;
17953;SDS011;9102;53.548;9.926;2024-02-14T03:36:30;12.43;;;5.50;;
17953;SDS011;9102;53.548;9.926;2024-02-14T03:38:57;12.85;;;5.80;;
17953;SDS011;9102;53.548;9.926;2024-02-14T03:41:28;9.98;;;5.70;;
17953;SDS011;9102;53.548;9.926;2024-02-14T03:43:55;11.98;;;5.68;;
17953;SDS011;9102;53.548;9.926;2024-02-14T03:46:25;13.00;;;5.93;;
17953;SDS011;9102;53.548;9.926;2024-02-14T03:48:52;15.38;;;5.50;;
17953;SDS011;9102;53.548;9.926;2024-02-14T03:51:21;12.82;;;6.30;;
17953;SDS011;9102;53.548;9.926;2024-02-14T03:53:49;14.52;;;5.25;;
17953;SDS011;9102;53.548;9.926;2024-02-14T03:56:16;9.05;;;4.72;;
17953;SDS011;9102;53.548;9.926;2024-02-14T03:58:43;14.00;;;5.55;;
17953;SDS011;9102;53.548;9.926;2024-02-14T04:01:12;10.52;;;5.18;;
17953;SDS011;9102;53.548;9.926;2024-02-14T04:03:39;11.23;;;5.80;;
17953;SDS011;9102;53.548;9.926;2024-02-14T04:06:06;8.48;;;4.75;;
17953;SDS011;9102;53.548;9.926;2024-02-14T04:08:34;11.57;;;5.07;;
17953;SDS011;9102;53.548;9.926;2024-02-14T04:11:01;11.45;;;5.38;;
17953;SDS011;9102;53.548;9.926;2024-02-14T04:13:28;10.93;;;5.60;;
17953;SDS011;9102;53.548;9.926;2024-02-14T04:15:55;10.52;;;5.43;;
17953;SDS011;9102;53.548;9.926;2024-02-14T04:18:21;12.52;;;5.15;;
17953;SDS011;9102;53.548;9.926;2024-02-14T04:20:48;14.23;;;5.45;;
17953;SDS011;9102;53.548;9.926;2024-02-14T04:23:16;12.82;;;5.15;;
17953;SDS011;9102;53.548;9.926;2024-02-14T04:25:45;12.48;;;5.35;;
17953;SDS011;9102;53.548;9.926;2024-02-14T04:28:12;12.60;;;5.38;;
17953;SDS011;9102;53.548;9.926;2024-02-14T04:30:39;8.68;;;4.88;;
17953;SDS011;9102;53.548;9.926;2024-02-14T04:33:06;11.48;;;5.70;;
17953;SDS011;9102;53.548;9.926;2024-02-14T04:35:34;10.25;;;5.60;;
17953;SDS011;9102;53.548;9.926;2024-02-14T04:38:01;9.85;;;5.28;;
17953;SDS011;9102;53.548;9.926;2024-02-14T04:40:28;12.82;;;5.85;;
17953;SDS011;9102;53.548;9.926;2024-02-14T04:42:56;12.25;;;6.07;;
17953;SDS011;9102;53.548;9.926;2024-02-14T04:45:25;11.88;;;6.03;;
17953;SDS011;9102;53.548;9.926;2024-02-14T04:47:52;9.32;;;5.95;;
17953;SDS011;9102;53.548;9.926;2024-02-14T04:50:19;13.35;;;6.40;;
17953;SDS011;9102;53.548;9.926;2024-02-14T04:52:46;11.07;;;6.22;;
17953;SDS011;9102;53.548;9.926;2024-02-14T04:55:13;14.60;;;6.57;;
17953;SDS011;9102;53.548;9.926;2024-02-14T04:57:39;14.60;;;6.50;;
17953;SDS011;9102;53.548;9.926;2024-02-14T05:00:08;14.52;;;6.82;;
17953;SDS011;9102;53.548;9.926;2024-02-14T05:02:36;13.35;;;7.07;;
17953;SDS011;9102;53.548;9.926;2024-02-14T05:05:03;10.95;;;6.70;;
17953;SDS011;9102;53.548;9.926;2024-02-14T05:07:30;12.25;;;6.85;;
17953;SDS011;9102;53.548;9.926;2024-02-14T05:09:59;13.82;;;6.88;;
17953;SDS011;9102;53.548;9.926;2024-02-14T05:12:26;12.93;;;6.82;;
17953;SDS011;9102;53.548;9.926;2024-02-14T05:14:53;14.02;;;7.80;;
17953;SDS011;9102;53.548;9.926;2024-02-14T05:17:21;14.68;;;7.38;;
17953;SDS011;9102;53.548;9.926;2024-02-14T05:19:48;17.45;;;7.97;;
17953;SDS011;9102;53.548;9.926;2024-02-14T05:22:15;14.73;;;8.25;;
17953;SDS011;9102;53.548;9.926;2024-02-14T05:24:43;12.88;;;8.07;;
17953;SDS011;9102;53.548;9.926;2024-02-14T05:27:11;15.48;;;8.15;;
17953;SDS011;9102;53.548;9.926;2024-02-14T05:29:38;12.98;;;7.40;;
17953;SDS011;9102;53.548;9.926;2024-02-14T05:32:05;14.00;;;8.32;;
17953;SDS011;9102;53.548;9.926;2024-02-14T05:34:35;16.45;;;8.05;;
17953;SDS011;9102;53.548;9.926;2024-02-14T05:37:03;13.75;;;8.27;;
17953;SDS011;9102;53.548;9.926;2024-02-14T05:39:30;13.05;;;8.63;;
17953;SDS011;9102;53.548;9.926;2024-02-14T05:41:57;12.77;;;7.95;;
17953;SDS011;9102;53.548;9.926;2024-02-14T05:44:24;15.70;;;8.23;;
17953;SDS011;9102;53.548;9.926;2024-02-14T05:46:52;15.15;;;8.25;;
17953;SDS011;9102;53.548;9.926;2024-02-14T05:49:19;15.30;;;8.70;;
17953;SDS011;9102;53.548;9.926;2024-02-14T05:51:47;14.60;;;7.60;;
17953;SDS011;9102;53.548;9.926;2024-02-14T05:54:15;14.05;;;7.93;;
17953;SDS011;9102;53.548;9.926;2024-02-14T05:56:41;12.63;;;7.03;;
17953;SDS011;9102;53.548;9.926;2024-02-14T05:59:09;11.43;;;7.10;;
17953;SDS011;9102;53.548;9.926;2024-02-14T06:01:36;13.55;;;8.00;;
17953;SDS011;9102;53.548;9.926;2024-02-14T06:04:03;12.23;;;7.65;;
17953;SDS011;9102;53.548;9.926;2024-02-14T06:06:30;14.63;;;7.82;;
17953;SDS011;9102;53.548;9.926;2024-02-14T06:08:58;14.38;;;7.82;;
17953;SDS011;9102;53.548;9.926;2024-02-14T06:11:25;16.10;;;8.05;;
17953;SDS011;9102;53.548;9.926;2024-02-14T06:13:52;18.65;;;8.63;;
17953;SDS011;9102;53.548;9.926;2024-02-14T06:16:18;14.02;;;7.72;;
17953;SDS011;9102;53.548;9.926;2024-02-14T06:18:45;17.75;;;8.70;;
17953;SDS011;9102;53.548;9.926;2024-02-14T06:21:12;12.35;;;7.45;;
17953;SDS011;9102;53.548;9.926;2024-02-14T06:23:39;15.93;;;7.78;;
17953;SDS011;9102;53.548;9.926;2024-02-14T06:26:07;15.40;;;7.95;;
17953;SDS011;9102;53.548;9.926;2024-02-14T06:28:34;17.58;;;7.28;;
17953;SDS011;9102;53.548;9.926;2024-02-14T06:31:00;13.55;;;7.90;;
17953;SDS011;9102;53.548;9.926;2024-02-14T06:33:26;14.65;;;7.80;;
17953;SDS011;9102;53.548;9.926;2024-02-14T06:35:53;14.52;;;7.40;;
17953;SDS011;9102;53.548;9.926;2024-02-14T06:38:20;13.10;;;7.68;;
17953;SDS011;9102;53.548;9.926;2024-02-14T06:40:47;12.15;;;7.55;;
17953;SDS011;9102;53.548;9.926;2024-02-14T06:43:15;12.65;;;7.85;;
17953;SDS011;9102;53.548;9.926;2024-02-14T06:45:43;15.02;;;7.78;;
17953;SDS011;9102;53.548;9.926;2024-02-14T06:48:10;20.73;;;8.40;;
17953;SDS011;9102;53.548;9.926;2024-02-14T06:50:37;14.70;;;8.32;;
17953;SDS011;9102;53.548;9.926;2024-02-14T06:53:03;15.32;;;8.23;;
17953;SDS011;9102;53.548;9.926;2024-02-14T06:55:30;14.55;;;8.20;;
17953;SDS011;9102;53.548;9.926;2024-02-14T06:57:57;18.27;;;8.18;;
17953;SDS011;9102;53.548;9.926;2024-02-14T07:00:25;12.73;;;7.57;;
17953;SDS011;9102;53.548;9.926;2024-02-14T07:02:53;14.93;;;8.80;;
17953;SDS011;9102;53.548;9.926;2024-02-14T07:05:20;17.45;;;9.10;;
17953;SDS011;9102;53.548;9.926;2024-02-14T07:07:47;16.02;;;7.80;;
17953;SDS011;9102;53.548;9.926;2024-02-14T07:10:13;13.98;;;7.93;;
17953;SDS011;9102;53.548;9.926;2024-02-14T07:12:40;13.93;;;8.07;;
17953;SDS011;9102;53.548;9.926;2024-02-14T07:15:07;17.92;;;8.38;;
17953;SDS011;9102;53.548;9.926;2024-02-14T07:17:35;15.80;;;8.85;;
17953;SDS011;9102;53.548;9.926;2024-02-14T07:20:03;19.05;;;8.45;;
17953;SDS011;9102;53.548;9.926;2024-02-14T07:22:33;15.65;;;8.73;;
17953;SDS011;9102;53.548;9.926;2024-02-14T07:25:00;17.13;;;8.85;;
17953;SDS011;9102;53.548;9.926;2024-02-14T07:27:27;15.43;;;8.63;;
17953;SDS011;9102;53.548;9.926;2024-02-14T07:29:54;14.93;;;9.35;;
17953;SDS011;9102;53.548;9.926;2024-02-14T07:32:21;15.68;;;9.18;;
17953;SDS011;9102;53.548;9.926;2024-02-14T07:34:49;15.07;;;9.07;;
17953;SDS011;9102;53.548;9.926;2024-02-14T07:37:16;15.75;;;8.80;;
17953;SDS011;9102;53.548;9.926;2024-02-14T07:39:44;15.88;;;9.07;;
17953;SDS011;9102;53.548;9.926;2024-02-14T07:42:11;16.98;;;8.98;;
17953;SDS011;9102;53.548;9.926;2024-02-14T07:44:38;18.25;;;9.15;;
17953;SDS011;9102;53.548;9.926;2024-02-14T07:47:05;18.42;;;9.48;;
17953;SDS011;9102;53.548;9.926;2024-02-14T07:49:32;18.65;;;9.68;;
17953;SDS011;9102;53.548;9.926;2024-02-14T07:52:00;20.80;;;9.65;;
17953;SDS011;9102;53.548;9.926;2024-02-14T07:54:27;16.77;;;8.93;;
17953;SDS011;9102;53.548;9.926;2024-02-14T07:56:54;21.10;;;10.30;;
17953;SDS011;9102;53.548;9.926;2024-02-14T07:59:21;21.08;;;10.18;;
17953;SDS011;9102;53.548;9.926;2024-02-14T08:01:47;17.52;;;9.88;;
17953;SDS011;9102;53.548;9.926;2024-02-14T08:04:14;21.20;;;10.55;;
17953;SDS011;9102;53.548;9.926;2024-02-14T08:06:41;30.52;;;12.95;;
17953;SDS011;9102;53.548;9.926;2024-02-14T08:09:09;18.33;;;9.73;;
17953;SDS011;9102;53.548;9.926;2024-02-14T08:11:36;20.92;;;10.60;;
17953;SDS011;9102;53.548;9.926;2024-02-14T08:14:03;28.65;;;10.32;;
17953;SDS011;9102;53.548;9.926;2024-02-14T08:16:30;24.95;;;11.13;;
17953;SDS011;9102;53.548;9.926;2024-02-14T08:18:57;23.10;;;10.70;;
17953;SDS011;9102;53.548;9.926;2024-02-14T08:21:24;19.83;;;10.85;;
17953;SDS011;9102;53.548;9.926;2024-02-14T08:23:51;20.60;;;10.85;;
17953;SDS011;9102;53.548;9.926;2024-02-14T08:26:20;28.15;;;11.65;;
17953;SDS011;9102;53.548;9.926;2024-02-14T08:28:48;30.52;;;11.63;;
17953;SDS011;9102;53.548;9.926;2024-02-14T08:31:15;20.27;;;10.43;;
17953;SDS011;9102;53.548;9.926;2024-02-14T08:33:42;18.77;;;10.40;;
17953;SDS011;9102;53.548;9.926;2024-02-14T08:36:09;43.20;;;15.55;;
17953;SDS011;9102;53.548;9.926;2024-02-14T08:38:36;20.27;;;10.55;;
17953;SDS011;9102;53.548;9.926;2024-02-14T08:41:03;17.45;;;10.00;;
17953;SDS011;9102;53.548;9.926;2024-02-14T08:43:31;22.05;;;11.63;;
17953;SDS011;9102;53.548;9.926;2024-02-14T08:45:58;19.98;;;10.38;;
17953;SDS011;9102;53.548;9.926;2024-02-14T08:48:25;17.95;;;9.82;;
17953;SDS011;9102;53.548;9.926;2024-02-14T08:50:54;16.02;;;9.10;;
17953;SDS011;9102;53.548;9.926;2024-02-14T08:53:20;16.70;;;9.32;;
17953;SDS011;9102;53.548;9.926;2024-02-14T08:55:47;18.80;;;10.00;;
17953;SDS011;9102;53.548;9.926;2024-02-14T08:58:14;14.15;;;8.82;;
17953;SDS011;9102;53.548;9.926;2024-02-14T09:00:43;15.60;;;8.90;;
17953;SDS011;9102;53.548;9.926;2024-02-14T09:03:10;16.40;;;8.68;;
17953;SDS011;9102;53.548;9.926;2024-02-14T09:05:37;16.75;;;9.82;;
17953;SDS011;9102;53.548;9.926;2024-02-14T09:08:04;16.20;;;9.23;;
17953;SDS011;9102;53.548;9.926;2024-02-14T09:10:31;15.50;;;8.30;;
17953;SDS011;9102;53.548;9.926;2024-02-14T09:12:58;15.60;;;8.90;;
17953;SDS011;9102;53.548;9.926;2024-02-14T09:15:25;21.45;;;10.07;;
17953;SDS011;9102;53.548;9.926;2024-02-14T09:17:54;18.60;;;9.82;;
17953;SDS011;9102;53.548;9.926;2024-02-14T09:20:22;13.38;;;8.00;;
17953;SDS011;9102;53.548;9.926;2024-02-14T09:22:49;16.92;;;7.55;;
17953;SDS011;9102;53.548;9.926;2024-02-14T09:25:16;11.75;;;6.78;;
17953;SDS011;9102;53.548;9.926;2024-02-14T09:27:42;11.93;;;5.68;;
17953;SDS011;9102;53.548;9.926;2024-02-14T09:30:12;9.60;;;5.40;;
17953;SDS011;9102;53.548;9.926;2024-02-14T09:32:39;8.45;;;4.90;;
17953;SDS011;9102;53.548;9.926;2024-02-14T09:35:07;6.18;;;4.40;;
17953;SDS011;9102;53.548;9.926;2024-02-14T09:37:35;9.77;;;5.53;;
17953;SDS011;9102;53.548;9.926;2024-02-14T09:40:03;7.75;;;5.07;;
17953;SDS011;9102;53.548;9.926;2024-02-14T09:42:32;9.55;;;5.18;;
17953;SDS011;9102;53.548;9.926;2024-02-14T09:45:05;7.97;;;5.10;;
17953;SDS011;9102;53.548;9.926;2024-02-14T09:47:33;7.22;;;4.80;;
17953;SDS011;9102;53.548;9.926;2024-02-14T09:50:01;7.90;;;4.95;;
17953;SDS011;9102;53.548;9.926;2024-02-14T09:52:32;6.68;;;4.30;;
17953;SDS011;9102;53.548;9.926;2024-02-14T09:55:00;7.53;;;4.88;;
17953;SDS011;9102;53.548;9.926;2024-02-14T09:57:30;7.20;;;4.45;;
17953;SDS011;9102;53.548;9.926;2024-02-14T09:59:58;9.98;;;4.88;;
17953;SDS011;9102;53.548;9.926;2024-02-14T10:02:26;6.50;;;4.68;;
17953;SDS011;9102;53.548;9.926;2024-02-14T10:04:53;5.93;;;3.90;;
17953;SDS011;9102;53.548;9.926;2024-02-14T10:07:20;5.93;;;4.15;;
17953;SDS011;9102;53.548;9.926;2024-02-14T10:09:49;7.47;;;4.70;;
17953;SDS011;9102;53.548;9.926;2024-02-14T10:12:15;5.68;;;3.83;;
17953;SDS011;9102;53.548;9.926;2024-02-14T10:14:42;6.80;;;4.78;;
17953;SDS011;9102;53.548;9.926;2024-02-14T10:17:16;6.30;;;4.43;;
17953;SDS011;9102;53.548;9.926;2024-02-14T10:19:44;6.05;;;4.20;;
17953;SDS011;9102;53.548;9.926;2024-02-14T10:22:21;6.22;;;4.72;;
17953;SDS011;9102;53.548;9.926;2024-02-14T10:24:49;5.35;;;4.28;;
17953;SDS011;9102;53.548;9.926;2024-02-14T10:27:16;5.93;;;3.80;;
17953;SDS011;9102;53.548;9.926;2024-02-14T10:29:43;5.20;;;4.10;;
17953;SDS011;9102;53.548;9.926;2024-02-14T10:32:14;7.32;;;3.90;;
17953;SDS011;9102;53.548;9.926;2024-02-14T10:34:41;5.40;;;3.92;;
17953;SDS011;9102;53.548;9.926;2024-02-14T10:37:12;5.53;;;3.85;;
17953;SDS011;9102;53.548;9.926;2024-02-14T10:39:41;6.90;;;3.92;;
17953;SDS011;9102;53.548;9.926;2024-02-14T10:42:11;6.80;;;3.88;;
17953;SDS011;9102;53.548;9.926;2024-02-14T10:44:38;5.82;;;3.72;;
17953;SDS011;9102;53.548;9.926;2024-02-14T10:47:06;6.25;;;3.88;;
17953;SDS011;9102;53.548;9.926;2024-02-14T10:49:37;6.20;;;4.10;;
17953;SDS011;9102;53.548;9.926;2024-02-14T10:52:06;7.20;;;3.88;;
17953;SDS011;9102;53.548;9.926;2024-02-14T10:54:35;5.50;;;3.67;;
17953;SDS011;9102;53.548;9.926;2024-02-14T10:57:04;4.95;;;3.42;;
17953;SDS011;9102;53.548;9.926;2024-02-14T10:59:37;5.88;;;3.90;;
17953;SDS011;9102;53.548;9.926;2024-02-14T11:02:09;5.97;;;4.18;;
17953;SDS011;9102;53.548;9.926;2024-02-14T11:04:37;5.78;;;3.65;;
17953;SDS011;9102;53.548;9.926;2024-02-14T11:07:08;7.03;;;4.25;;
17953;SDS011;9102;53.548;9.926;2024-02-14T11:09:36;5.57;;;4.00;;
17953;SDS011;9102;53.548;9.926;2024-02-14T11:12:03;8.30;;;4.07;;
17953;SDS011;9102;53.548;9.926;2024-02-14T11:14:34;6.57;;;4.53;;
17953;SDS011;9102;53.548;9.926;2024-02-14T11:17:03;7.03;;;4.75;;
17953;SDS011;9102;53.548;9.926;2024-02-14T11:19:34;6.95;;;4.72;;
17953;SDS011;9102;53.548;9.926;2024-02-14T11:22:09;6.68;;;4.90;;
17953;SDS011;9102;53.548;9.926;2024-02-14T11:24:37;6.93;;;4.55;;
17953;SDS011;9102;53.548;9.926;2024-02-14T11:27:09;7.78;;;4.78;;
17953;SDS011;9102;53.548;9.926;2024-02-14T11:29:38;8.73;;;5.38;;
17953;SDS011;9102;53.548;9.926;2024-02-14T11:32:07;7.50;;;5.35;;
17953;SDS011;9102;53.548;9.926;2024-02-14T11:34:35;9.48;;;5.40;;
17953;SDS011;9102;53.548;9.926;2024-02-14T11:37:02;8.32;;;5.03;;
17953;SDS011;9102;53.548;9.926;2024-02-14T11:39:29;8.38;;;5.43;;
17953;SDS011;9102;53.548;9.926;2024-02-14T11:41:58;7.65;;;4.88;;
17953;SDS011;9102;53.548;9.926;2024-02-14T11:44:26;10.77;;;5.45;;
17953;SDS011;9102;53.548;9.926;2024-02-14T11:46:57;8.75;;;5.40;;
17953;SDS011;9102;53.548;9.926;2024-02-14T11:49:25;7.68;;;5.15;;
17953;SDS011;9102;53.548;9.926;2024-02-14T11:51:52;8.85;;;5.50;;
17953;SDS011;9102;53.548;9.926;2024-02-14T11:54:19;9.27;;;5.70;;
17953;SDS011;9102;53.548;9.926;2024-02-14T11:56:47;9.13;;;5.70;;
17953;SDS011;9102;53.548;9.926;2024-02-14T11:59:14;9.50;;;5.57;;
17953;SDS011;9102;53.548;9.926;2024-02-14T12:01:44;8.65;;;5.10;;
17953;SDS011;9102;53.548;9.926;2024-02-14T12:04:13;9.07;;;5.82;;
17953;SDS011;9102;53.548;9.926;2024-02-14T12:06:42;9.35;;;5.70;;
17953;SDS011;9102;53.548;9.926;2024-02-14T12:09:09;8.57;;;5.60;;
17953;SDS011;9102;53.548;9.926;2024-02-14T12:11:38;11.15;;;5.78;;
17953;SDS011;9102;53.548;9.926;2024-02-14T12:14:07;8.23;;;5.38;;
17953;SDS011;9102;53.548;9.926;2024-02-14T12:16:35;9.07;;;5.40;;
17953;SDS011;9102;53.548;9.926;2024-02-14T12:19:03;8.68;;;5.50;;
17953;SDS011;9102;53.548;9.926;2024-02-14T12:21:34;9.88;;;6.03;;
17953;SDS011;9102;53.548;9.926;2024-02-14T12:24:02;11.80;;;6.00;;
17953;SDS011;9102;53.548;9.926;2024-02-14T12:26:30;12.90;;;6.57;;
17953;SDS011;9102;53.548;9.926;2024-02-14T12:28:58;10.73;;;6.38;;
17953;SDS011;9102;53.548;9.926;2024-02-14T12:31:28;10.75;;;6.82;;
17953;SDS011;9102;53.548;9.926;2024-02-14T12:33:56;13.95;;;7.10;;
17953;SDS011;9102;53.548;9.926;2024-02-14T12:36:24;12.70;;;7.07;;
17953;SDS011;9102;53.548;9.926;2024-02-14T12:38:51;12.50;;;7.35;;
17953;SDS011;9102;53.548;9.926;2024-02-14T12:41:20;11.90;;;7.22;;
17953;SDS011;9102;53.548;9.926;2024-02-14T12:43:47;15.50;;;7.95;;
17953;SDS011;9102;53.548;9.926;2024-02-14T12:46:14;15.85;;;8.63;;
17953;SDS011;9102;53.548;9.926;2024-02-14T12:48:41;17.20;;;8.95;;
17953;SDS011;9102;53.548;9.926;2024-02-14T12:51:08;16.52;;;8.70;;
17953;SDS011;9102;53.548;9.926;2024-02-14T12:53:35;13.93;;;8.52;;
17953;SDS011;9102;53.548;9.926;2024-02-14T12:56:02;18.27;;;10.13;;
17953;SDS011;9102;53.548;9.926;2024-02-14T12:58:31;16.05;;;9.73;;
17953;SDS011;9102;53.548;9.926;2024-02-14T13:00:58;18.15;;;10.75;;
17953;SDS011;9102;53.548;9.926;2024-02-14T13:03:26;19.08;;;10.35;;
17953;SDS011;9102;53.548;9.926;2024-02-14T13:05:53;17.52;;;9.73;;
17953;SDS011;9102;53.548;9.926;2024-02-14T13:08:20;18.77;;;10.02;;
17953;SDS011;9102;53.548;9.926;2024-02-14T13:10:48;20.75;;;10.10;;
17953;SDS011;9102;53.548;9.926;2024-02-14T13:13:18;16.30;;;8.98;;
17953;SDS011;9102;53.548;9.926;2024-02-14T13:15:46;18.50;;;8.68;;
17953;SDS011;9102;53.548;9.926;2024-02-14T13:18:13;15.07;;;8.38;;
17953;SDS011;9102;53.548;9.926;2024-02-14T13:20:40;16.10;;;8.93;;
17953;SDS011;9102;53.548;9.926;2024-02-14T13:23:09;16.85;;;8.30;;
17953;SDS011;9102;53.548;9.926;2024-02-14T13:25:36;16.85;;;8.18;;
17953;SDS011;9102;53.548;9.926;2024-02-14T13:28:03;13.70;;;7.30;;
17953;SDS011;9102;53.548;9.926;2024-02-14T13:30:30;14.20;;;8.45;;
17953;SDS011;9102;53.548;9.926;2024-02-14T13:32:59;15.82;;;8.02;;
17953;SDS011;9102;53.548;9.926;2024-02-14T13:35:26;14.95;;;8.20;;
17953;SDS011;9102;53.548;9.926;2024-02-14T13:37:54;13.57;;;7.43;;
17953;SDS011;9102;53.548;9.926;2024-02-14T13:40:22;12.07;;;7.32;;
17953;SDS011;9102;53.548;9.926;2024-02-14T13:42:48;11.55;;;7.28;;
17953;SDS011;9102;53.548;9.926;2024-02-14T13:45:15;12.13;;;7.53;;
17953;SDS011;9102;53.548;9.926;2024-02-14T13:47:42;14.32;;;8.15;;
17953;SDS011;9102;53.548;9.926;2024-02-14T13:50:11;14.77;;;8.35;;
17953;SDS011;9102;53.548;9.926;2024-02-14T13:52:38;15.20;;;8.15;;
17953;SDS011;9102;53.548;9.926;2024-02-14T13:55:05;15.77;;;8.07;;
17953;SDS011;9102;53.548;9.926;2024-02-14T13:57:35;13.80;;;8.20;;
17953;SDS011;9102;53.548;9.926;2024-02-14T14:00:03;13.77;;;8.05;;
17953;SDS011;9102;53.548;9.926;2024-02-14T14:02:30;12.77;;;7.95;;
17953;SDS011;9102;53.548;9.926;2024-02-14T14:04:57;13.52;;;8.02;;
17953;SDS011;9102;53.548;9.926;2024-02-14T14:07:26;15.32;;;8.90;;
17953;SDS011;9102;53.548;9.926;2024-02-14T14:09:52;15.07;;;8.82;;
17953;SDS011;9102;53.548;9.926;2024-02-14T14:12:19;18.60;;;9.68;;
17953;SDS011;9102;53.548;9.926;2024-02-14T14:14:47;13.32;;;8.43;;
17953;SDS011;9102;53.548;9.926;2024-02-14T14:17:13;17.40;;;8.25;;
17953;SDS011;9102;53.548;9.926;2024-02-14T14:19:40;15.63;;;8.43;;
17953;SDS011;9102;53.548;9.926;2024-02-14T14:22:07;16.92;;;7.60;;
17953;SDS011;9102;53.548;9.926;2024-02-14T14:24:35;13.15;;;7.70;;
17953;SDS011;9102;53.548;9.926;2024-02-14T14:27:01;16.02;;;7.63;;
17953;SDS011;9102;53.548;9.926;2024-02-14T14:29:28;12.65;;;7.38;;
17953;SDS011;9102;53.548;9.926;2024-02-14T14:31:55;12.85;;;7.63;;
17953;SDS011;9102;53.548;9.926;2024-02-14T14:34:23;14.45;;;7.72;;
17953;SDS011;9102;53.548;9.926;2024-02-14T14:36:51;12.38;;;7.43;;
17953;SDS011;9102;53.548;9.926;2024-02-14T14:39:19;16.25;;;8.57;;
17953;SDS011;9102;53.548;9.926;2024-02-14T14:41:48;15.63;;;8.27;;
17953;SDS011;9102;53.548;9.926;2024-02-14T14:44:16;12.30;;;8.10;;
17953;SDS011;9102;53.548;9.926;2024-02-14T14:46:43;15.52;;;8.05;;
17953;SDS011;9102;53.548;9.926;2024-02-14T14:49:10;15.38;;;8.60;;
17953;SDS011;9102;53.548;9.926;2024-02-14T14:51:37;22.50;;;9.35;;